createdAt,value
2023-05-21T00:02:18.831Z,16.70
2023-05-21T00:04:47.533Z,16.70
2023-05-21T00:07:15.485Z,16.70
2023-05-21T00:09:42.528Z,16.70
2023-05-21T00:12:09.930Z,16.70
2023-05-21T00:14:36.975Z,16.70
2023-05-21T00:17:04.039Z,16.60
2023-05-21T00:19:32.718Z,16.70
2023-05-21T00:22:02.334Z,16.60
2023-05-21T00:24:29.594Z,16.70
2023-05-21T00:26:56.636Z,16.60
2023-05-21T00:29:24.203Z,16.70
2023-05-21T00:31:52.220Z,16.60
2023-05-21T00:34:19.396Z,16.60
2023-05-21T00:36:46.791Z,16.60
2023-05-21T00:39:13.840Z,16.60
2023-05-21T00:41:43.074Z,16.60
2023-05-21T00:44:10.197Z,16.60
2023-05-21T00:46:37.472Z,16.60
2023-05-21T00:49:04.775Z,16.60
2023-05-21T00:51:31.747Z,16.60
2023-05-21T00:53:59.272Z,16.60
2023-05-21T00:56:27.440Z,16.60
2023-05-21T00:58:57.322Z,16.60
2023-05-21T01:01:26.023Z,16.60
2023-05-21T01:03:57.550Z,16.60
2023-05-21T01:06:24.573Z,16.50
2023-05-21T01:08:51.635Z,16.60
2023-05-21T01:11:21.594Z,16.60
2023-05-21T01:13:49.535Z,16.50
2023-05-21T01:16:17.929Z,16.50
2023-05-21T01:18:45.302Z,16.50
2023-05-21T01:21:13.697Z,16.50
2023-05-21T01:23:40.994Z,16.50
2023-05-21T01:26:08.539Z,16.50
2023-05-21T01:28:35.652Z,16.50
2023-05-21T01:31:16.408Z,16.50
2023-05-21T01:33:48.829Z,16.40
2023-05-21T01:36:24.295Z,16.40
2023-05-21T01:39:02.160Z,16.50
2023-05-21T01:41:33.614Z,16.40
2023-05-21T01:44:02.011Z,16.40
2023-05-21T01:46:31.451Z,16.40
2023-05-21T01:48:59.564Z,16.40
2023-05-21T01:51:27.835Z,16.40
2023-05-21T01:53:54.807Z,16.40
2023-05-21T01:56:25.757Z,16.40
2023-05-21T01:58:52.941Z,16.40
2023-05-21T02:01:20.422Z,16.40
2023-05-21T02:03:47.565Z,16.40
2023-05-21T02:06:14.541Z,16.50
2023-05-21T02:08:41.535Z,16.50
2023-05-21T02:11:09.094Z,16.50
2023-05-21T02:13:42.789Z,16.50
2023-05-21T02:16:14.779Z,16.50
2023-05-21T02:18:46.473Z,16.50
2023-05-21T02:21:13.522Z,16.50
2023-05-21T02:23:42.561Z,16.60
2023-05-21T02:26:09.542Z,16.60
2023-05-21T02:28:36.614Z,16.60
2023-05-21T02:31:04.002Z,16.60
2023-05-21T02:33:31.160Z,16.50
2023-05-21T02:35:58.311Z,16.50
2023-05-21T02:38:25.945Z,16.50
2023-05-21T02:40:53.154Z,16.60
2023-05-21T02:43:20.365Z,16.60
2023-05-21T02:45:47.756Z,16.60
2023-05-21T02:48:15.053Z,16.60
2023-05-21T02:50:42.622Z,16.60
2023-05-21T02:53:09.643Z,16.60
2023-05-21T02:55:36.945Z,16.60
2023-05-21T02:58:04.660Z,16.60
2023-05-21T03:00:35.056Z,16.60
2023-05-21T03:03:02.200Z,16.60
2023-05-21T03:05:29.306Z,16.70
2023-05-21T03:07:56.496Z,16.70
2023-05-21T03:10:23.496Z,16.70
2023-05-21T03:12:50.865Z,16.70
2023-05-21T03:15:18.205Z,16.80
2023-05-21T03:17:45.291Z,16.80
2023-05-21T03:20:18.600Z,16.80
2023-05-21T03:22:46.379Z,16.80
2023-05-21T03:25:13.519Z,16.80
2023-05-21T03:27:40.811Z,16.80
2023-05-21T03:30:19.511Z,16.80
2023-05-21T03:33:06.635Z,16.80
2023-05-21T03:35:34.078Z,16.80
2023-05-21T03:38:04.109Z,16.80
2023-05-21T03:40:31.153Z,16.80
2023-05-21T03:42:58.178Z,16.70
2023-05-21T03:45:25.317Z,16.80
2023-05-21T03:48:11.208Z,16.70
2023-05-21T03:50:38.342Z,16.70
2023-05-21T03:53:05.447Z,16.70
2023-05-21T03:55:32.697Z,16.60
2023-05-21T03:57:59.789Z,16.60
2023-05-21T04:00:27.387Z,16.60
2023-05-21T04:02:54.712Z,16.60
2023-05-21T04:05:21.757Z,16.60
2023-05-21T04:07:50.075Z,16.50
2023-05-21T04:10:17.159Z,16.50
2023-05-21T04:12:44.202Z,16.40
2023-05-21T04:15:11.333Z,16.50
2023-05-21T04:17:39.960Z,16.50
2023-05-21T04:20:07.889Z,16.50
2023-05-21T04:22:35.349Z,16.50
2023-05-21T04:25:02.897Z,16.50
2023-05-21T04:27:35.329Z,16.50
2023-05-21T04:30:04.252Z,16.50
2023-05-21T04:32:34.932Z,16.50
2023-05-21T04:35:02.094Z,16.40
2023-05-21T04:37:30.136Z,16.50
2023-05-21T04:40:01.554Z,16.40
2023-05-21T04:42:30.041Z,16.40
2023-05-21T04:44:59.344Z,16.40
2023-05-21T04:47:30.393Z,16.40
2023-05-21T04:49:59.418Z,16.40
2023-05-21T04:52:28.124Z,16.40
2023-05-21T04:54:55.168Z,16.40
2023-05-21T04:57:24.987Z,16.40
2023-05-21T04:59:52.764Z,16.50
2023-05-21T05:02:19.971Z,16.50
2023-05-21T05:04:46.941Z,16.50
2023-05-21T05:07:15.045Z,16.50
2023-05-21T05:09:42.013Z,16.50
2023-05-21T05:12:09.210Z,16.50
2023-05-21T05:14:36.275Z,16.50
2023-05-21T05:17:03.685Z,16.50
2023-05-21T05:19:31.965Z,16.60
2023-05-21T05:21:59.287Z,16.50
2023-05-21T05:24:26.251Z,16.60
2023-05-21T05:26:53.323Z,16.50
2023-05-21T05:29:20.483Z,16.60
2023-05-21T05:31:47.888Z,16.60
2023-05-21T05:34:15.777Z,16.70
2023-05-21T05:36:42.795Z,16.60
2023-05-21T05:39:10.289Z,16.70
2023-05-21T05:41:38.038Z,16.70
2023-05-21T05:44:06.944Z,16.80
2023-05-21T05:46:37.451Z,16.80
2023-05-21T05:49:04.584Z,16.80
2023-05-21T05:51:31.684Z,16.90
2023-05-21T05:53:59.159Z,16.90
2023-05-21T05:56:27.029Z,16.90
2023-05-21T05:58:54.108Z,16.90
2023-05-21T06:01:24.584Z,16.90
2023-05-21T06:03:52.123Z,16.90
2023-05-21T06:06:19.638Z,17.00
2023-05-21T06:08:47.532Z,17.00
2023-05-21T06:11:17.243Z,17.00
2023-05-21T06:13:45.696Z,17.10
2023-05-21T06:16:33.961Z,17.10
2023-05-21T06:19:01.230Z,17.10
2023-05-21T06:21:28.512Z,17.10
2023-05-21T06:23:55.856Z,17.00
2023-05-21T06:26:23.248Z,17.00
2023-05-21T06:28:51.777Z,17.00
2023-05-21T06:31:19.054Z,17.00
2023-05-21T06:33:46.236Z,17.00
2023-05-21T06:36:13.253Z,17.00
2023-05-21T06:38:40.971Z,17.00
2023-05-21T06:41:08.049Z,17.00
2023-05-21T06:43:55.342Z,17.00
2023-05-21T06:46:40.951Z,17.00
2023-05-21T06:49:09.234Z,17.00
2023-05-21T06:51:36.324Z,17.00
2023-05-21T06:54:04.410Z,17.00
2023-05-21T06:56:31.946Z,17.00
2023-05-21T06:58:59.397Z,17.10
2023-05-21T07:01:27.653Z,17.10
2023-05-21T07:03:54.712Z,17.10
2023-05-21T07:06:22.299Z,17.10
2023-05-21T07:08:49.977Z,17.10
2023-05-21T07:11:17.197Z,17.20
2023-05-21T07:13:44.248Z,17.20
2023-05-21T07:16:12.239Z,17.20
2023-05-21T07:18:40.780Z,17.30
2023-05-21T07:21:07.833Z,17.30
2023-05-21T07:23:36.125Z,17.30
2023-05-21T07:26:03.255Z,17.30
2023-05-21T07:28:30.275Z,17.30
2023-05-21T07:30:57.273Z,17.30
2023-05-21T07:33:31.376Z,17.40
2023-05-21T07:35:58.408Z,17.40
2023-05-21T07:38:26.171Z,17.40
2023-05-21T07:40:53.257Z,17.50
2023-05-21T07:43:20.963Z,17.50
2023-05-21T07:45:48.080Z,17.50
2023-05-21T07:48:15.296Z,17.50
2023-05-21T07:50:52.735Z,17.60
2023-05-21T07:53:20.439Z,17.50
2023-05-21T07:55:48.010Z,17.60
2023-05-21T07:58:20.097Z,17.60
2023-05-21T08:00:48.346Z,17.60
2023-05-21T08:03:18.730Z,17.70
2023-05-21T08:05:49.224Z,17.80
2023-05-21T08:08:17.887Z,17.90
2023-05-21T08:10:46.494Z,17.90
2023-05-21T08:13:14.890Z,18.00
2023-05-21T08:15:42.417Z,18.10
2023-05-21T08:18:10.123Z,18.20
2023-05-21T08:20:37.419Z,18.30
2023-05-21T08:23:04.878Z,18.30
2023-05-21T08:25:40.000Z,18.40
2023-05-21T08:28:07.651Z,18.40
2023-05-21T08:30:35.228Z,18.40
2023-05-21T08:33:02.582Z,18.50
2023-05-21T08:35:32.178Z,18.50
2023-05-21T08:38:25.218Z,18.60
2023-05-21T08:41:12.454Z,18.70
2023-05-21T08:43:39.821Z,18.70
2023-05-21T08:46:12.638Z,18.70
2023-05-21T08:48:41.500Z,18.70
2023-05-21T08:51:08.753Z,18.70
2023-05-21T08:53:45.619Z,18.70
2023-05-21T08:56:18.163Z,18.70
2023-05-21T08:58:57.283Z,18.70
2023-05-21T09:01:28.030Z,18.70
2023-05-21T09:04:20.751Z,18.70
2023-05-21T09:06:52.036Z,18.70
2023-05-21T09:09:36.808Z,18.70
2023-05-21T09:12:04.282Z,18.70
2023-05-21T09:14:32.696Z,18.70
2023-05-21T09:17:04.809Z,18.60
2023-05-21T09:19:32.508Z,18.60
2023-05-21T09:22:04.549Z,18.60
2023-05-21T09:24:36.090Z,18.60
2023-05-21T09:27:07.514Z,18.60
2023-05-21T09:29:35.593Z,18.60
2023-05-21T09:32:07.852Z,18.50
2023-05-21T09:34:37.196Z,18.50
2023-05-21T09:37:13.506Z,18.50
2023-05-21T09:39:48.017Z,18.50
2023-05-21T09:42:16.276Z,18.60
2023-05-21T09:44:44.211Z,18.60
2023-05-21T09:47:11.276Z,18.70
2023-05-21T09:49:38.339Z,18.80
2023-05-21T09:52:05.763Z,18.80
2023-05-21T09:54:34.269Z,18.90
2023-05-21T09:57:02.802Z,18.90
2023-05-21T09:59:39.774Z,18.90
2023-05-21T10:02:21.956Z,19.00
2023-05-21T10:04:54.371Z,19.20
2023-05-21T10:07:28.820Z,19.30
2023-05-21T10:09:57.948Z,19.40
2023-05-21T10:12:25.672Z,19.40
2023-05-21T10:15:01.304Z,19.50
2023-05-21T10:17:29.698Z,19.60
2023-05-21T10:19:57.276Z,19.70
2023-05-21T10:22:28.006Z,19.70
2023-05-21T10:24:55.416Z,19.80
2023-05-21T10:27:23.148Z,19.80
2023-05-21T10:29:50.792Z,19.90
2023-05-21T10:32:18.428Z,20.00
2023-05-21T10:34:46.779Z,20.10
2023-05-21T10:37:14.840Z,20.10
2023-05-21T10:39:45.839Z,20.20
2023-05-21T10:42:27.217Z,20.30
2023-05-21T10:45:37.298Z,20.30
2023-05-21T10:48:16.449Z,20.40
2023-05-21T10:50:56.689Z,20.50
2023-05-21T10:53:32.195Z,20.50
2023-05-21T10:56:41.835Z,20.60
2023-05-21T10:59:22.207Z,20.60
2023-05-21T11:01:54.137Z,20.80
2023-05-21T11:04:27.531Z,21.00
2023-05-21T11:06:56.268Z,21.00
2023-05-21T11:09:23.601Z,21.00
2023-05-21T11:11:52.766Z,21.10
2023-05-21T11:14:26.365Z,21.10
2023-05-21T11:16:53.478Z,21.20
2023-05-21T11:19:20.758Z,21.30
2023-05-21T11:21:51.574Z,21.30
2023-05-21T11:24:21.493Z,21.40
2023-05-21T11:26:48.385Z,21.40
2023-05-21T11:29:15.941Z,21.40
2023-05-21T11:31:47.533Z,21.50
2023-05-21T11:34:20.174Z,21.50
2023-05-21T11:36:48.649Z,21.60
2023-05-21T11:39:23.993Z,21.60
2023-05-21T11:41:53.867Z,21.70
2023-05-21T11:44:40.158Z,21.70
2023-05-21T11:47:09.217Z,21.70
2023-05-21T11:49:37.310Z,21.70
2023-05-21T11:52:06.126Z,21.80
2023-05-21T11:54:36.915Z,21.80
2023-05-21T11:57:10.284Z,21.90
2023-05-21T11:59:37.473Z,21.90
2023-05-21T12:02:05.001Z,21.90
2023-05-21T12:04:37.755Z,22.00
2023-05-21T12:07:09.125Z,22.00
2023-05-21T12:09:40.869Z,22.00
2023-05-21T12:12:13.421Z,22.00
2023-05-21T12:14:43.360Z,22.10
2023-05-21T12:17:10.610Z,22.10
2023-05-21T12:19:38.409Z,22.20
2023-05-21T12:22:06.296Z,22.20
2023-05-21T12:24:34.540Z,22.30
2023-05-21T12:27:03.731Z,22.40
2023-05-21T12:29:32.332Z,22.40
2023-05-21T12:32:03.880Z,22.50
2023-05-21T12:34:51.320Z,22.50
2023-05-21T12:37:26.479Z,22.60
2023-05-21T12:39:55.260Z,22.70
2023-05-21T12:42:35.579Z,22.70
2023-05-21T12:45:10.190Z,22.70
2023-05-21T12:47:37.470Z,22.70
2023-05-21T12:50:08.389Z,22.70
2023-05-21T12:52:35.608Z,22.80
2023-05-21T12:55:02.712Z,22.80
2023-05-21T12:57:41.028Z,22.80
2023-05-21T13:00:09.097Z,22.80
2023-05-21T13:02:44.542Z,22.90
2023-05-21T13:05:19.696Z,22.80
2023-05-21T13:07:47.857Z,22.90
2023-05-21T13:10:16.393Z,23.10
2023-05-21T13:12:44.649Z,23.10
2023-05-21T13:15:12.575Z,23.20
2023-05-21T13:17:39.731Z,23.30
2023-05-21T13:20:07.532Z,23.40
2023-05-21T13:22:35.664Z,23.40
2023-05-21T13:25:03.296Z,23.50
2023-05-21T13:27:30.526Z,23.50
2023-05-21T13:29:58.033Z,23.50
2023-05-21T13:32:25.043Z,23.50
2023-05-21T13:34:52.068Z,23.60
2023-05-21T13:37:20.502Z,23.60
2023-05-21T13:39:47.858Z,23.70
2023-05-21T13:42:15.932Z,23.70
2023-05-21T13:44:43.321Z,23.80
2023-05-21T13:47:10.631Z,23.80
2023-05-21T13:49:38.671Z,23.90
2023-05-21T13:52:06.992Z,23.90
2023-05-21T13:54:34.197Z,24.00
2023-05-21T13:57:01.286Z,24.10
2023-05-21T13:59:29.269Z,24.20
2023-05-21T14:01:58.178Z,24.20
2023-05-21T14:04:25.213Z,24.30
2023-05-21T14:06:52.452Z,24.30
2023-05-21T14:09:19.636Z,24.40
2023-05-21T14:11:46.676Z,24.50
2023-05-21T14:14:18.755Z,24.50
2023-05-21T14:16:49.749Z,24.60
2023-05-21T14:19:17.108Z,24.70
2023-05-21T14:21:44.440Z,24.80
2023-05-21T14:24:11.443Z,24.90
2023-05-21T14:26:41.604Z,24.90
2023-05-21T14:29:09.291Z,25.00
2023-05-21T14:31:37.315Z,25.10
2023-05-21T14:34:05.228Z,25.20
2023-05-21T14:36:32.594Z,25.40
2023-05-21T14:38:59.608Z,25.50
2023-05-21T14:41:27.343Z,25.70
2023-05-21T14:43:54.596Z,25.70
2023-05-21T14:46:21.808Z,25.90
2023-05-21T14:48:48.903Z,26.00
2023-05-21T14:51:16.456Z,26.10
2023-05-21T14:53:43.539Z,26.30
2023-05-21T14:56:10.502Z,26.40
2023-05-21T14:58:37.432Z,26.50
2023-05-21T15:01:04.532Z,26.50
2023-05-21T15:03:31.666Z,26.60
2023-05-21T15:05:58.927Z,26.70
2023-05-21T15:08:25.926Z,26.90
2023-05-21T15:10:52.909Z,27.10
2023-05-21T15:13:21.378Z,27.30
2023-05-21T15:15:49.520Z,27.50
2023-05-21T15:18:16.494Z,27.70
2023-05-21T15:20:43.586Z,28.10
2023-05-21T15:23:16.728Z,28.40
2023-05-21T15:25:44.371Z,29.00
2023-05-21T15:28:12.346Z,29.60
2023-05-21T15:30:39.953Z,30.20
2023-05-21T15:33:07.002Z,30.80
2023-05-21T15:35:36.624Z,31.50
2023-05-21T15:38:04.045Z,32.10
2023-05-21T15:40:32.206Z,32.60
2023-05-21T15:42:59.216Z,33.00
2023-05-21T15:45:26.257Z,33.30
2023-05-21T15:47:53.359Z,33.70
2023-05-21T15:50:20.448Z,34.00
2023-05-21T15:52:47.429Z,34.20
2023-05-21T15:55:14.499Z,34.40
2023-05-21T15:57:41.536Z,34.80
2023-05-21T16:00:09.942Z,35.20
2023-05-21T16:02:37.187Z,35.50
2023-05-21T16:05:04.460Z,35.50
2023-05-21T16:07:31.484Z,35.40
2023-05-21T16:09:58.483Z,35.40
2023-05-21T16:12:26.847Z,35.30
2023-05-21T16:14:53.771Z,34.90
2023-05-21T16:17:20.780Z,34.50
2023-05-21T16:19:47.910Z,33.80
2023-05-21T16:22:15.269Z,33.30
2023-05-21T16:24:42.269Z,32.80
2023-05-21T16:27:09.336Z,32.30
2023-05-21T16:29:37.600Z,32.00
2023-05-21T16:32:06.662Z,31.60
2023-05-21T16:34:34.463Z,31.10
2023-05-21T16:37:01.649Z,30.80
2023-05-21T16:39:28.602Z,30.70
2023-05-21T16:41:59.587Z,30.60
2023-05-21T16:44:27.213Z,30.70
2023-05-21T16:46:54.347Z,30.90
2023-05-21T16:49:21.312Z,31.10
2023-05-21T16:51:48.300Z,31.30
2023-05-21T16:54:15.420Z,31.50
2023-05-21T16:56:42.384Z,31.50
2023-05-21T16:59:09.504Z,31.60
2023-05-21T17:01:36.895Z,31.60
2023-05-21T17:04:04.119Z,31.60
2023-05-21T17:06:31.685Z,31.60
2023-05-21T17:08:58.668Z,31.60
2023-05-21T17:11:25.794Z,31.60
2023-05-21T17:13:52.780Z,31.50
2023-05-21T17:16:19.968Z,31.40
2023-05-21T17:18:47.097Z,31.20
2023-05-21T17:21:14.149Z,31.00
2023-05-21T17:23:42.844Z,30.80
2023-05-21T17:26:11.071Z,30.70
2023-05-21T17:28:38.070Z,30.70
2023-05-21T17:31:05.097Z,30.70
2023-05-21T17:33:32.272Z,30.80
2023-05-21T17:35:59.395Z,30.70
2023-05-21T17:38:26.376Z,30.70
2023-05-21T17:40:53.395Z,30.60
2023-05-21T17:43:20.468Z,30.30
2023-05-21T17:45:47.486Z,30.10
2023-05-21T17:48:14.547Z,29.80
2023-05-21T17:50:41.780Z,29.50
2023-05-21T17:53:08.862Z,29.20
2023-05-21T17:55:36.065Z,28.90
2023-05-21T17:58:03.091Z,28.60
2023-05-21T18:00:32.151Z,28.30
2023-05-21T18:02:59.171Z,28.00
2023-05-21T18:05:26.175Z,27.80
2023-05-21T18:07:53.240Z,27.50
2023-05-21T18:10:20.430Z,27.40
2023-05-21T18:12:47.503Z,27.20
2023-05-21T18:15:15.389Z,27.00
2023-05-21T18:17:42.373Z,26.90
2023-05-21T18:20:09.832Z,26.70
2023-05-21T18:22:36.987Z,26.50
2023-05-21T18:25:04.840Z,26.40
2023-05-21T18:27:31.901Z,26.30
2023-05-21T18:30:02.357Z,26.10
2023-05-21T18:32:29.953Z,26.00
2023-05-21T18:34:58.528Z,25.80
2023-05-21T18:37:27.177Z,25.70
2023-05-21T18:39:54.186Z,25.60
2023-05-21T18:42:21.161Z,25.50
2023-05-21T18:44:50.968Z,25.40
2023-05-21T18:47:17.948Z,25.30
2023-05-21T18:49:44.931Z,25.20
2023-05-21T18:52:11.922Z,25.10
2023-05-21T18:54:38.949Z,25.00
2023-05-21T18:57:06.169Z,24.90
2023-05-21T18:59:33.108Z,24.80
2023-05-21T19:02:00.226Z,24.70
2023-05-21T19:04:27.553Z,24.60
2023-05-21T19:06:54.890Z,24.50
2023-05-21T19:09:21.917Z,24.40
2023-05-21T19:11:49.350Z,24.40
2023-05-21T19:14:16.429Z,24.30
2023-05-21T19:16:43.510Z,24.20
2023-05-21T19:19:10.549Z,24.10
2023-05-21T19:21:37.614Z,24.10
2023-05-21T19:24:06.046Z,24.10
2023-05-21T19:26:33.336Z,24.00
2023-05-21T19:29:00.636Z,23.90
2023-05-21T19:31:27.684Z,23.90
2023-05-21T19:33:54.704Z,23.80
2023-05-21T19:36:21.963Z,23.80
2023-05-21T19:38:50.220Z,23.80
2023-05-21T19:41:18.166Z,23.70
2023-05-21T19:43:45.634Z,23.70
2023-05-21T19:46:13.175Z,23.70
2023-05-21T19:48:40.423Z,23.60
2023-05-21T19:51:07.482Z,23.60
2023-05-21T19:53:34.965Z,23.50
2023-05-21T19:56:02.140Z,23.40
2023-05-21T19:58:29.629Z,23.40
2023-05-21T20:00:59.251Z,23.30
2023-05-21T20:03:27.227Z,23.30
2023-05-21T20:05:54.686Z,23.20
2023-05-21T20:08:22.313Z,23.10
2023-05-21T20:10:51.790Z,23.10
2023-05-21T20:13:19.638Z,23.00
2023-05-21T20:15:47.893Z,22.90
2023-05-21T20:18:15.577Z,22.90
2023-05-21T20:20:43.259Z,22.80
2023-05-21T20:23:10.483Z,22.80
2023-05-21T20:25:37.474Z,22.70
2023-05-21T20:28:05.399Z,22.70
2023-05-21T20:30:34.173Z,22.70
2023-05-21T20:33:02.541Z,22.70
2023-05-21T20:35:30.267Z,22.70
2023-05-21T20:37:57.484Z,22.60
2023-05-21T20:40:24.531Z,22.60
2023-05-21T20:42:53.474Z,22.60
2023-05-21T20:45:21.931Z,22.60
2023-05-21T20:47:49.971Z,22.60
2023-05-21T20:50:25.782Z,22.50
2023-05-21T20:52:52.912Z,22.50
2023-05-21T20:55:20.906Z,22.40
2023-05-21T20:57:47.976Z,22.30
2023-05-21T21:00:16.123Z,22.20
2023-05-21T21:02:43.800Z,22.20
2023-05-21T21:05:11.366Z,22.10
2023-05-21T21:07:38.984Z,22.10
2023-05-21T21:10:06.345Z,22.10
2023-05-21T21:12:33.285Z,22.10
2023-05-21T21:15:00.357Z,22.00
2023-05-21T21:17:27.311Z,22.00
2023-05-21T21:19:54.386Z,22.00
2023-05-21T21:22:21.523Z,21.90
2023-05-21T21:24:48.610Z,21.90
2023-05-21T21:27:15.563Z,21.80
2023-05-21T21:29:42.607Z,21.80
2023-05-21T21:32:09.680Z,21.80
2023-05-21T21:34:36.626Z,21.80
2023-05-21T21:37:04.369Z,21.70
2023-05-21T21:39:31.315Z,21.70
2023-05-21T21:41:58.326Z,21.70
2023-05-21T21:44:25.344Z,21.70
2023-05-21T21:46:52.341Z,21.70
2023-05-21T21:49:19.415Z,21.70
2023-05-21T21:51:46.376Z,21.60
2023-05-21T21:54:13.286Z,21.60
2023-05-21T21:56:40.624Z,21.60
2023-05-21T21:59:07.637Z,21.60
2023-05-21T22:01:35.736Z,21.50
2023-05-21T22:04:02.772Z,21.50
2023-05-21T22:06:29.955Z,21.50
2023-05-21T22:08:57.049Z,21.50
2023-05-21T22:11:24.139Z,21.50
2023-05-21T22:13:51.133Z,21.50
2023-05-21T22:16:18.121Z,21.50
2023-05-21T22:18:46.148Z,21.50
2023-05-21T22:21:14.550Z,21.50
2023-05-21T22:23:41.629Z,21.50
2023-05-21T22:26:09.397Z,21.40
2023-05-21T22:28:36.387Z,21.30
2023-05-21T22:31:03.547Z,21.30
2023-05-21T22:33:31.371Z,21.30
2023-05-21T22:35:58.504Z,21.30
2023-05-21T22:38:25.844Z,21.30
2023-05-21T22:40:52.902Z,21.40
2023-05-21T22:43:19.943Z,21.40
2023-05-21T22:45:47.002Z,21.40
2023-05-21T22:48:14.307Z,21.40
2023-05-21T22:50:41.494Z,21.40
2023-05-21T22:53:08.604Z,21.40
2023-05-21T22:55:35.579Z,21.30
2023-05-21T22:58:02.641Z,21.30
2023-05-21T23:00:29.649Z,21.30
2023-05-21T23:02:56.810Z,21.20
2023-05-21T23:05:23.932Z,21.30
2023-05-21T23:07:51.093Z,21.20
2023-05-21T23:10:18.069Z,21.20
2023-05-21T23:12:45.098Z,21.10
2023-05-21T23:15:12.401Z,21.10
2023-05-21T23:17:39.392Z,21.00
2023-05-21T23:20:08.749Z,21.00
2023-05-21T23:22:36.738Z,20.90
2023-05-21T23:25:04.021Z,20.70
2023-05-21T23:27:31.525Z,20.70
2023-05-21T23:29:58.489Z,20.60
2023-05-21T23:32:25.809Z,20.60
2023-05-21T23:34:52.812Z,20.50
2023-05-21T23:37:19.964Z,20.50
2023-05-21T23:39:49.656Z,20.50
2023-05-21T23:42:17.633Z,20.50
2023-05-21T23:44:44.834Z,20.50
2023-05-21T23:47:11.870Z,20.40
2023-05-21T23:49:39.453Z,20.50
2023-05-21T23:52:07.005Z,20.50
2023-05-21T23:54:33.957Z,20.50
2023-05-21T23:57:02.105Z,20.50
2023-05-21T23:59:29.320Z,20.50
